sensor_id;sensor_type;location;lat;lon;timestamp;P1;durP1;ratioP1;P2;durP2;ratioP2
37595;SDS011;23442;48.182;11.552;2022-08-14T00:01:08;17.00;;;8.77;;
37595;SDS011;23442;48.182;11.552;2022-08-14T00:03:34;23.40;;;9.13;;
37595;SDS011;23442;48.182;11.552;2022-08-14T00:06:00;40.55;;;12.63;;
37595;SDS011;23442;48.182;11.552;2022-08-14T00:08:28;20.05;;;8.55;;
37595;SDS011;23442;48.182;11.552;2022-08-14T00:10:55;18.58;;;8.23;;
37595;SDS011;23442;48.182;11.552;2022-08-14T00:13:22;22.73;;;10.90;;
37595;SDS011;23442;48.182;11.552;2022-08-14T00:15:53;31.38;;;11.15;;
37595;SDS011;23442;48.182;11.552;2022-08-14T00:18:21;22.10;;;9.20;;
37595;SDS011;23442;48.182;11.552;2022-08-14T00:20:48;23.42;;;8.82;;
37595;SDS011;23442;48.182;11.552;2022-08-14T00:23:16;37.38;;;11.88;;
37595;SDS011;23442;48.182;11.552;2022-08-14T00:25:43;26.90;;;13.45;;
37595;SDS011;23442;48.182;11.552;2022-08-14T00:28:12;15.25;;;9.15;;
37595;SDS011;23442;48.182;11.552;2022-08-14T00:30:39;19.20;;;8.73;;
37595;SDS011;23442;48.182;11.552;2022-08-14T00:33:05;19.00;;;8.93;;
37595;SDS011;23442;48.182;11.552;2022-08-14T00:35:31;23.27;;;9.82;;
37595;SDS011;23442;48.182;11.552;2022-08-14T00:38:01;16.70;;;8.88;;
37595;SDS011;23442;48.182;11.552;2022-08-14T00:40:27;25.52;;;10.25;;
37595;SDS011;23442;48.182;11.552;2022-08-14T00:42:53;27.50;;;11.20;;
37595;SDS011;23442;48.182;11.552;2022-08-14T00:45:20;27.75;;;10.85;;
37595;SDS011;23442;48.182;11.552;2022-08-14T00:47:46;20.63;;;9.65;;
37595;SDS011;23442;48.182;11.552;2022-08-14T00:50:14;25.23;;;10.25;;
37595;SDS011;23442;48.182;11.552;2022-08-14T00:52:47;22.92;;;10.15;;
37595;SDS011;23442;48.182;11.552;2022-08-14T00:55:16;31.00;;;11.05;;
37595;SDS011;23442;48.182;11.552;2022-08-14T00:57:44;17.27;;;8.93;;
37595;SDS011;23442;48.182;11.552;2022-08-14T01:00:30;22.52;;;10.43;;
37595;SDS011;23442;48.182;11.552;2022-08-14T01:02:58;26.63;;;11.35;;
37595;SDS011;23442;48.182;11.552;2022-08-14T01:05:25;26.80;;;11.38;;
37595;SDS011;23442;48.182;11.552;2022-08-14T01:07:53;22.20;;;9.60;;
37595;SDS011;23442;48.182;11.552;2022-08-14T01:10:23;33.13;;;12.07;;
37595;SDS011;23442;48.182;11.552;2022-08-14T01:13:09;25.60;;;10.93;;
37595;SDS011;23442;48.182;11.552;2022-08-14T01:15:38;21.35;;;9.32;;
37595;SDS011;23442;48.182;11.552;2022-08-14T01:18:07;18.65;;;8.68;;
37595;SDS011;23442;48.182;11.552;2022-08-14T01:21:00;22.00;;;9.52;;
37595;SDS011;23442;48.182;11.552;2022-08-14T01:23:37;22.00;;;10.00;;
37595;SDS011;23442;48.182;11.552;2022-08-14T01:26:07;18.73;;;8.98;;
37595;SDS011;23442;48.182;11.552;2022-08-14T01:28:33;18.73;;;8.65;;
37595;SDS011;23442;48.182;11.552;2022-08-14T01:31:02;19.98;;;9.80;;
37595;SDS011;23442;48.182;11.552;2022-08-14T01:33:33;21.38;;;9.63;;
37595;SDS011;23442;48.182;11.552;2022-08-14T01:36:02;25.58;;;10.32;;
37595;SDS011;23442;48.182;11.552;2022-08-14T01:38:29;29.63;;;10.65;;
37595;SDS011;23442;48.182;11.552;2022-08-14T01:41:02;18.42;;;9.18;;
37595;SDS011;23442;48.182;11.552;2022-08-14T01:43:41;16.33;;;8.73;;
37595;SDS011;23442;48.182;11.552;2022-08-14T01:46:18;29.05;;;11.55;;
37595;SDS011;23442;48.182;11.552;2022-08-14T01:48:47;21.77;;;9.77;;
37595;SDS011;23442;48.182;11.552;2022-08-14T01:51:20;37.83;;;11.95;;
37595;SDS011;23442;48.182;11.552;2022-08-14T01:53:51;26.95;;;10.50;;
37595;SDS011;23442;48.182;11.552;2022-08-14T01:56:25;19.00;;;9.23;;
37595;SDS011;23442;48.182;11.552;2022-08-14T02:01:43;13.10;;;8.55;;
37595;SDS011;23442;48.182;11.552;2022-08-14T02:04:15;18.25;;;8.65;;
37595;SDS011;23442;48.182;11.552;2022-08-14T02:06:41;17.88;;;8.82;;
37595;SDS011;23442;48.182;11.552;2022-08-14T02:09:08;28.83;;;10.80;;
37595;SDS011;23442;48.182;11.552;2022-08-14T02:11:34;27.73;;;10.32;;
37595;SDS011;23442;48.182;11.552;2022-08-14T02:14:02;19.38;;;9.25;;
37595;SDS011;23442;48.182;11.552;2022-08-14T02:16:33;15.68;;;8.57;;
37595;SDS011;23442;48.182;11.552;2022-08-14T02:19:05;21.60;;;8.90;;
37595;SDS011;23442;48.182;11.552;2022-08-14T02:21:35;18.55;;;8.52;;
37595;SDS011;23442;48.182;11.552;2022-08-14T02:24:03;21.20;;;9.07;;
37595;SDS011;23442;48.182;11.552;2022-08-14T02:26:31;19.08;;;8.90;;
37595;SDS011;23442;48.182;11.552;2022-08-14T02:29:00;19.45;;;9.50;;
37595;SDS011;23442;48.182;11.552;2022-08-14T02:31:36;20.95;;;9.15;;
37595;SDS011;23442;48.182;11.552;2022-08-14T02:34:09;18.38;;;8.68;;
37595;SDS011;23442;48.182;11.552;2022-08-14T02:36:45;16.15;;;8.13;;
37595;SDS011;23442;48.182;11.552;2022-08-14T02:39:15;24.90;;;9.90;;
37595;SDS011;23442;48.182;11.552;2022-08-14T02:41:41;12.32;;;7.55;;
37595;SDS011;23442;48.182;11.552;2022-08-14T02:44:09;18.30;;;8.23;;
37595;SDS011;23442;48.182;11.552;2022-08-14T02:46:36;17.27;;;8.32;;
37595;SDS011;23442;48.182;11.552;2022-08-14T02:49:03;17.75;;;8.43;;
37595;SDS011;23442;48.182;11.552;2022-08-14T02:51:30;16.10;;;8.00;;
37595;SDS011;23442;48.182;11.552;2022-08-14T02:53:57;16.38;;;8.48;;
37595;SDS011;23442;48.182;11.552;2022-08-14T02:56:25;19.88;;;8.70;;
37595;SDS011;23442;48.182;11.552;2022-08-14T02:58:53;21.30;;;9.52;;
37595;SDS011;23442;48.182;11.552;2022-08-14T03:01:21;16.73;;;8.70;;
37595;SDS011;23442;48.182;11.552;2022-08-14T03:03:49;17.10;;;8.45;;
37595;SDS011;23442;48.182;11.552;2022-08-14T03:06:16;15.68;;;8.52;;
37595;SDS011;23442;48.182;11.552;2022-08-14T03:08:50;19.15;;;9.18;;
37595;SDS011;23442;48.182;11.552;2022-08-14T03:11:18;20.35;;;9.18;;
37595;SDS011;23442;48.182;11.552;2022-08-14T03:13:46;19.52;;;8.52;;
37595;SDS011;23442;48.182;11.552;2022-08-14T03:16:16;15.60;;;8.07;;
37595;SDS011;23442;48.182;11.552;2022-08-14T03:18:49;22.08;;;9.13;;
37595;SDS011;23442;48.182;11.552;2022-08-14T03:21:18;18.80;;;8.48;;
37595;SDS011;23442;48.182;11.552;2022-08-14T03:23:47;17.55;;;8.27;;
37595;SDS011;23442;48.182;11.552;2022-08-14T03:26:15;15.15;;;8.35;;
37595;SDS011;23442;48.182;11.552;2022-08-14T03:28:48;18.65;;;8.10;;
37595;SDS011;23442;48.182;11.552;2022-08-14T03:31:15;17.42;;;8.05;;
37595;SDS011;23442;48.182;11.552;2022-08-14T03:33:50;20.10;;;8.48;;
37595;SDS011;23442;48.182;11.552;2022-08-14T03:36:16;18.17;;;8.20;;
37595;SDS011;23442;48.182;11.552;2022-08-14T03:38:45;18.80;;;8.68;;
37595;SDS011;23442;48.182;11.552;2022-08-14T03:41:15;17.25;;;7.65;;
37595;SDS011;23442;48.182;11.552;2022-08-14T03:43:49;19.95;;;8.70;;
37595;SDS011;23442;48.182;11.552;2022-08-14T03:46:25;20.08;;;8.43;;
37595;SDS011;23442;48.182;11.552;2022-08-14T03:48:56;17.17;;;8.20;;
37595;SDS011;23442;48.182;11.552;2022-08-14T03:51:23;20.20;;;7.85;;
37595;SDS011;23442;48.182;11.552;2022-08-14T03:53:55;19.63;;;8.65;;
37595;SDS011;23442;48.182;11.552;2022-08-14T03:56:24;21.88;;;8.82;;
37595;SDS011;23442;48.182;11.552;2022-08-14T03:58:52;20.45;;;8.52;;
37595;SDS011;23442;48.182;11.552;2022-08-14T04:01:23;23.98;;;8.98;;
37595;SDS011;23442;48.182;11.552;2022-08-14T04:03:51;18.15;;;7.93;;
37595;SDS011;23442;48.182;11.552;2022-08-14T04:06:18;19.40;;;8.20;;
37595;SDS011;23442;48.182;11.552;2022-08-14T04:08:46;16.67;;;7.32;;
37595;SDS011;23442;48.182;11.552;2022-08-14T04:11:16;13.45;;;6.47;;
37595;SDS011;23442;48.182;11.552;2022-08-14T04:13:43;13.90;;;6.90;;
37595;SDS011;23442;48.182;11.552;2022-08-14T04:16:13;12.80;;;6.25;;
37595;SDS011;23442;48.182;11.552;2022-08-14T04:18:42;14.25;;;6.43;;
37595;SDS011;23442;48.182;11.552;2022-08-14T04:21:10;18.38;;;6.88;;
37595;SDS011;23442;48.182;11.552;2022-08-14T04:23:36;17.30;;;7.15;;
37595;SDS011;23442;48.182;11.552;2022-08-14T04:26:03;26.38;;;8.32;;
37595;SDS011;23442;48.182;11.552;2022-08-14T04:28:35;13.27;;;6.18;;
37595;SDS011;23442;48.182;11.552;2022-08-14T04:31:03;16.05;;;6.50;;
37595;SDS011;23442;48.182;11.552;2022-08-14T04:33:30;9.13;;;5.70;;
37595;SDS011;23442;48.182;11.552;2022-08-14T04:35:56;21.88;;;7.97;;
37595;SDS011;23442;48.182;11.552;2022-08-14T04:38:23;14.63;;;6.45;;
37595;SDS011;23442;48.182;11.552;2022-08-14T04:41:07;22.15;;;8.05;;
37595;SDS011;23442;48.182;11.552;2022-08-14T04:43:52;14.13;;;6.55;;
37595;SDS011;23442;48.182;11.552;2022-08-14T04:46:23;16.15;;;6.70;;
37595;SDS011;23442;48.182;11.552;2022-08-14T04:48:52;18.00;;;7.22;;
37595;SDS011;23442;48.182;11.552;2022-08-14T04:51:20;15.45;;;6.47;;
37595;SDS011;23442;48.182;11.552;2022-08-14T04:53:50;19.30;;;7.47;;
37595;SDS011;23442;48.182;11.552;2022-08-14T04:56:17;9.90;;;5.50;;
37595;SDS011;23442;48.182;11.552;2022-08-14T04:58:46;18.50;;;7.30;;
37595;SDS011;23442;48.182;11.552;2022-08-14T05:01:14;17.75;;;6.68;;
37595;SDS011;23442;48.182;11.552;2022-08-14T05:03:40;18.75;;;7.10;;
37595;SDS011;23442;48.182;11.552;2022-08-14T05:06:08;16.92;;;6.50;;
37595;SDS011;23442;48.182;11.552;2022-08-14T05:08:36;18.02;;;6.97;;
37595;SDS011;23442;48.182;11.552;2022-08-14T05:11:05;15.05;;;6.22;;
37595;SDS011;23442;48.182;11.552;2022-08-14T05:13:32;10.57;;;5.40;;
37595;SDS011;23442;48.182;11.552;2022-08-14T05:16:00;24.50;;;8.05;;
37595;SDS011;23442;48.182;11.552;2022-08-14T05:18:28;14.45;;;6.03;;
37595;SDS011;23442;48.182;11.552;2022-08-14T05:20:57;18.80;;;6.70;;
37595;SDS011;23442;48.182;11.552;2022-08-14T05:23:26;16.02;;;6.38;;
37595;SDS011;23442;48.182;11.552;2022-08-14T05:25:55;29.58;;;8.65;;
37595;SDS011;23442;48.182;11.552;2022-08-14T05:28:26;13.07;;;5.15;;
37595;SDS011;23442;48.182;11.552;2022-08-14T05:30:54;14.63;;;5.82;;
37595;SDS011;23442;48.182;11.552;2022-08-14T05:33:26;17.70;;;6.05;;
37595;SDS011;23442;48.182;11.552;2022-08-14T05:35:54;29.17;;;8.48;;
37595;SDS011;23442;48.182;11.552;2022-08-14T05:38:26;12.05;;;5.18;;
37595;SDS011;23442;48.182;11.552;2022-08-14T05:40:54;12.65;;;5.40;;
37595;SDS011;23442;48.182;11.552;2022-08-14T05:43:23;9.80;;;5.03;;
37595;SDS011;23442;48.182;11.552;2022-08-14T05:45:49;19.83;;;7.10;;
37595;SDS011;23442;48.182;11.552;2022-08-14T05:48:15;14.30;;;5.43;;
37595;SDS011;23442;48.182;11.552;2022-08-14T05:50:42;14.25;;;5.75;;
37595;SDS011;23442;48.182;11.552;2022-08-14T05:53:08;10.43;;;5.10;;
37595;SDS011;23442;48.182;11.552;2022-08-14T05:55:34;10.10;;;4.95;;
37595;SDS011;23442;48.182;11.552;2022-08-14T05:58:02;8.40;;;4.53;;
37595;SDS011;23442;48.182;11.552;2022-08-14T06:00:34;13.50;;;5.15;;
37595;SDS011;23442;48.182;11.552;2022-08-14T06:03:08;18.48;;;6.22;;
37595;SDS011;23442;48.182;11.552;2022-08-14T06:05:41;16.55;;;5.78;;
37595;SDS011;23442;48.182;11.552;2022-08-14T06:08:24;15.35;;;5.38;;
37595;SDS011;23442;48.182;11.552;2022-08-14T06:10:54;12.25;;;5.22;;
37595;SDS011;23442;48.182;11.552;2022-08-14T06:13:31;14.02;;;5.15;;
37595;SDS011;23442;48.182;11.552;2022-08-14T06:15:58;28.45;;;7.65;;
37595;SDS011;23442;48.182;11.552;2022-08-14T06:18:24;12.10;;;4.82;;
37595;SDS011;23442;48.182;11.552;2022-08-14T06:20:50;19.58;;;5.78;;
37595;SDS011;23442;48.182;11.552;2022-08-14T06:23:17;16.48;;;4.93;;
37595;SDS011;23442;48.182;11.552;2022-08-14T06:25:43;15.75;;;5.47;;
37595;SDS011;23442;48.182;11.552;2022-08-14T06:28:16;24.38;;;7.10;;
37595;SDS011;23442;48.182;11.552;2022-08-14T06:30:44;15.02;;;5.35;;
37595;SDS011;23442;48.182;11.552;2022-08-14T06:33:10;15.38;;;5.35;;
37595;SDS011;23442;48.182;11.552;2022-08-14T06:35:37;21.65;;;6.95;;
37595;SDS011;23442;48.182;11.552;2022-08-14T06:38:04;29.35;;;8.57;;
37595;SDS011;23442;48.182;11.552;2022-08-14T06:40:33;14.10;;;5.63;;
37595;SDS011;23442;48.182;11.552;2022-08-14T06:43:02;10.77;;;5.15;;
37595;SDS011;23442;48.182;11.552;2022-08-14T06:45:31;12.18;;;5.00;;
37595;SDS011;23442;48.182;11.552;2022-08-14T06:47:58;16.27;;;5.65;;
37595;SDS011;23442;48.182;11.552;2022-08-14T06:50:31;19.17;;;6.57;;
37595;SDS011;23442;48.182;11.552;2022-08-14T06:52:57;14.27;;;4.97;;
37595;SDS011;23442;48.182;11.552;2022-08-14T06:55:24;12.18;;;5.30;;
37595;SDS011;23442;48.182;11.552;2022-08-14T06:57:50;23.20;;;6.72;;
37595;SDS011;23442;48.182;11.552;2022-08-14T07:00:25;14.23;;;5.13;;
37595;SDS011;23442;48.182;11.552;2022-08-14T07:02:52;18.15;;;5.38;;
37595;SDS011;23442;48.182;11.552;2022-08-14T07:05:37;16.92;;;5.90;;
37595;SDS011;23442;48.182;11.552;2022-08-14T07:08:10;18.10;;;6.07;;
37595;SDS011;23442;48.182;11.552;2022-08-14T07:10:42;15.40;;;5.53;;
37595;SDS011;23442;48.182;11.552;2022-08-14T07:13:10;14.20;;;5.43;;
37595;SDS011;23442;48.182;11.552;2022-08-14T07:15:38;16.80;;;6.68;;
37595;SDS011;23442;48.182;11.552;2022-08-14T07:18:06;12.27;;;5.15;;
37595;SDS011;23442;48.182;11.552;2022-08-14T07:20:33;20.50;;;6.70;;
37595;SDS011;23442;48.182;11.552;2022-08-14T07:22:59;18.05;;;6.30;;
37595;SDS011;23442;48.182;11.552;2022-08-14T07:25:26;17.83;;;6.32;;
37595;SDS011;23442;48.182;11.552;2022-08-14T07:27:53;16.30;;;6.00;;
37595;SDS011;23442;48.182;11.552;2022-08-14T07:30:19;13.48;;;5.20;;
37595;SDS011;23442;48.182;11.552;2022-08-14T07:32:46;21.40;;;6.65;;
37595;SDS011;23442;48.182;11.552;2022-08-14T07:35:12;15.77;;;5.80;;
37595;SDS011;23442;48.182;11.552;2022-08-14T07:37:39;22.05;;;7.03;;
37595;SDS011;23442;48.182;11.552;2022-08-14T07:40:06;16.83;;;5.82;;
37595;SDS011;23442;48.182;11.552;2022-08-14T07:42:32;20.38;;;6.22;;
37595;SDS011;23442;48.182;11.552;2022-08-14T07:44:59;24.80;;;7.10;;
37595;SDS011;23442;48.182;11.552;2022-08-14T07:47:25;18.73;;;6.50;;
37595;SDS011;23442;48.182;11.552;2022-08-14T07:49:59;16.20;;;5.97;;
37595;SDS011;23442;48.182;11.552;2022-08-14T07:52:27;25.23;;;7.32;;
37595;SDS011;23442;48.182;11.552;2022-08-14T07:54:54;19.27;;;6.00;;
37595;SDS011;23442;48.182;11.552;2022-08-14T07:57:20;18.08;;;6.22;;
37595;SDS011;23442;48.182;11.552;2022-08-14T07:59:46;15.95;;;5.97;;
37595;SDS011;23442;48.182;11.552;2022-08-14T08:02:15;17.95;;;5.78;;
37595;SDS011;23442;48.182;11.552;2022-08-14T08:04:43;20.40;;;7.13;;
37595;SDS011;23442;48.182;11.552;2022-08-14T08:07:10;32.83;;;10.15;;
37595;SDS011;23442;48.182;11.552;2022-08-14T08:09:37;21.45;;;7.05;;
37595;SDS011;23442;48.182;11.552;2022-08-14T08:14:46;24.35;;;7.03;;
37595;SDS011;23442;48.182;11.552;2022-08-14T08:17:13;29.60;;;7.78;;
37595;SDS011;23442;48.182;11.552;2022-08-14T08:19:39;18.50;;;6.68;;
37595;SDS011;23442;48.182;11.552;2022-08-14T08:22:05;25.67;;;7.53;;
37595;SDS011;23442;48.182;11.552;2022-08-14T08:24:32;16.73;;;5.95;;
37595;SDS011;23442;48.182;11.552;2022-08-14T08:27:01;23.73;;;7.20;;
37595;SDS011;23442;48.182;11.552;2022-08-14T08:29:38;19.52;;;7.20;;
37595;SDS011;23442;48.182;11.552;2022-08-14T08:32:04;32.90;;;7.72;;
37595;SDS011;23442;48.182;11.552;2022-08-14T08:34:30;25.35;;;7.28;;
37595;SDS011;23442;48.182;11.552;2022-08-14T08:37:06;18.02;;;6.28;;
37595;SDS011;23442;48.182;11.552;2022-08-14T08:39:41;19.15;;;7.00;;
37595;SDS011;23442;48.182;11.552;2022-08-14T08:42:09;17.90;;;6.38;;
37595;SDS011;23442;48.182;11.552;2022-08-14T08:44:35;19.35;;;6.72;;
37595;SDS011;23442;48.182;11.552;2022-08-14T08:47:01;24.08;;;7.45;;
37595;SDS011;23442;48.182;11.552;2022-08-14T08:49:38;33.65;;;8.05;;
37595;SDS011;23442;48.182;11.552;2022-08-14T08:52:08;24.50;;;7.18;;
37595;SDS011;23442;48.182;11.552;2022-08-14T08:54:35;32.38;;;8.65;;
37595;SDS011;23442;48.182;11.552;2022-08-14T08:57:08;48.10;;;23.25;;
37595;SDS011;23442;48.182;11.552;2022-08-14T08:59:36;46.28;;;23.77;;
37595;SDS011;23442;48.182;11.552;2022-08-14T09:02:04;41.38;;;16.77;;
37595;SDS011;23442;48.182;11.552;2022-08-14T09:07:11;23.63;;;7.55;;
37595;SDS011;23442;48.182;11.552;2022-08-14T09:09:38;28.38;;;11.55;;
37595;SDS011;23442;48.182;11.552;2022-08-14T09:12:17;29.52;;;11.23;;
37595;SDS011;23442;48.182;11.552;2022-08-14T09:14:45;19.50;;;6.78;;
37595;SDS011;23442;48.182;11.552;2022-08-14T09:17:12;16.50;;;6.63;;
37595;SDS011;23442;48.182;11.552;2022-08-14T09:19:39;26.83;;;9.45;;
37595;SDS011;23442;48.182;11.552;2022-08-14T09:22:05;26.02;;;7.97;;
37595;SDS011;23442;48.182;11.552;2022-08-14T09:24:32;18.33;;;7.35;;
37595;SDS011;23442;48.182;11.552;2022-08-14T09:26:58;24.63;;;7.65;;
37595;SDS011;23442;48.182;11.552;2022-08-14T09:29:24;34.50;;;10.27;;
37595;SDS011;23442;48.182;11.552;2022-08-14T09:31:51;25.55;;;8.43;;
37595;SDS011;23442;48.182;11.552;2022-08-14T09:40:11;36.95;;;10.15;;
37595;SDS011;23442;48.182;11.552;2022-08-14T09:43:01;24.95;;;8.02;;
37595;SDS011;23442;48.182;11.552;2022-08-14T09:45:34;17.80;;;7.15;;
37595;SDS011;23442;48.182;11.552;2022-08-14T09:48:15;24.35;;;8.23;;
37595;SDS011;23442;48.182;11.552;2022-08-14T09:50:45;34.15;;;8.98;;
37595;SDS011;23442;48.182;11.552;2022-08-14T09:53:15;28.08;;;8.07;;
37595;SDS011;23442;48.182;11.552;2022-08-14T09:55:43;44.25;;;10.80;;
37595;SDS011;23442;48.182;11.552;2022-08-14T09:58:14;27.60;;;8.88;;
37595;SDS011;23442;48.182;11.552;2022-08-14T10:00:50;29.10;;;8.25;;
37595;SDS011;23442;48.182;11.552;2022-08-14T10:03:28;26.23;;;8.02;;
37595;SDS011;23442;48.182;11.552;2022-08-14T10:06:16;36.30;;;9.57;;
37595;SDS011;23442;48.182;11.552;2022-08-14T10:08:45;24.08;;;7.65;;
37595;SDS011;23442;48.182;11.552;2022-08-14T10:13:47;22.08;;;7.30;;
37595;SDS011;23442;48.182;11.552;2022-08-14T10:16:19;31.98;;;8.93;;
37595;SDS011;23442;48.182;11.552;2022-08-14T10:18:59;35.47;;;9.48;;
37595;SDS011;23442;48.182;11.552;2022-08-14T10:21:27;28.63;;;8.65;;
37595;SDS011;23442;48.182;11.552;2022-08-14T10:23:53;33.88;;;10.02;;
37595;SDS011;23442;48.182;11.552;2022-08-14T10:26:19;25.25;;;8.02;;
37595;SDS011;23442;48.182;11.552;2022-08-14T10:28:46;38.42;;;9.93;;
37595;SDS011;23442;48.182;11.552;2022-08-14T10:31:23;27.52;;;8.60;;
37595;SDS011;23442;48.182;11.552;2022-08-14T10:34:03;31.85;;;9.48;;
37595;SDS011;23442;48.182;11.552;2022-08-14T10:36:32;24.65;;;7.90;;
37595;SDS011;23442;48.182;11.552;2022-08-14T10:39:03;21.20;;;7.55;;
37595;SDS011;23442;48.182;11.552;2022-08-14T10:41:34;16.88;;;6.38;;
37595;SDS011;23442;48.182;11.552;2022-08-14T10:44:05;32.08;;;9.73;;
37595;SDS011;23442;48.182;11.552;2022-08-14T10:46:40;26.45;;;8.40;;
37595;SDS011;23442;48.182;11.552;2022-08-14T10:49:15;30.95;;;8.32;;
37595;SDS011;23442;48.182;11.552;2022-08-14T10:51:53;38.83;;;9.70;;
37595;SDS011;23442;48.182;11.552;2022-08-14T10:59:50;28.23;;;8.77;;
37595;SDS011;23442;48.182;11.552;2022-08-14T11:02:28;28.50;;;9.10;;
37595;SDS011;23442;48.182;11.552;2022-08-14T11:05:07;24.55;;;7.40;;
37595;SDS011;23442;48.182;11.552;2022-08-14T11:07:38;39.95;;;11.25;;
37595;SDS011;23442;48.182;11.552;2022-08-14T11:10:11;21.75;;;7.03;;
37595;SDS011;23442;48.182;11.552;2022-08-14T11:12:44;21.58;;;7.45;;
37595;SDS011;23442;48.182;11.552;2022-08-14T11:17:48;23.23;;;6.55;;
37595;SDS011;23442;48.182;11.552;2022-08-14T11:20:22;22.05;;;6.75;;
37595;SDS011;23442;48.182;11.552;2022-08-14T11:22:51;30.40;;;8.23;;
37595;SDS011;23442;48.182;11.552;2022-08-14T11:25:19;27.35;;;8.70;;
37595;SDS011;23442;48.182;11.552;2022-08-14T11:27:48;27.10;;;7.85;;
37595;SDS011;23442;48.182;11.552;2022-08-14T11:30:17;14.85;;;6.55;;
37595;SDS011;23442;48.182;11.552;2022-08-14T11:32:48;26.75;;;8.18;;
37595;SDS011;23442;48.182;11.552;2022-08-14T11:35:58;18.90;;;6.10;;
37595;SDS011;23442;48.182;11.552;2022-08-14T11:38:05;19.80;;;6.25;;
37595;SDS011;23442;48.182;11.552;2022-08-14T11:40:36;18.15;;;6.05;;
37595;SDS011;23442;48.182;11.552;2022-08-14T11:43:04;31.05;;;8.10;;
37595;SDS011;23442;48.182;11.552;2022-08-14T11:45:32;28.23;;;8.05;;
37595;SDS011;23442;48.182;11.552;2022-08-14T11:48:01;19.25;;;6.38;;
37595;SDS011;23442;48.182;11.552;2022-08-14T11:50:41;23.30;;;7.05;;
37595;SDS011;23442;48.182;11.552;2022-08-14T11:53:17;25.27;;;7.32;;
37595;SDS011;23442;48.182;11.552;2022-08-14T11:55:44;24.10;;;7.63;;
37595;SDS011;23442;48.182;11.552;2022-08-14T11:58:11;18.40;;;6.20;;
37595;SDS011;23442;48.182;11.552;2022-08-14T12:00:51;20.63;;;6.40;;
37595;SDS011;23442;48.182;11.552;2022-08-14T12:03:18;19.08;;;6.93;;
37595;SDS011;23442;48.182;11.552;2022-08-14T12:05:45;24.58;;;7.63;;
37595;SDS011;23442;48.182;11.552;2022-08-14T12:08:11;26.38;;;7.97;;
37595;SDS011;23442;48.182;11.552;2022-08-14T12:10:39;31.65;;;9.30;;
37595;SDS011;23442;48.182;11.552;2022-08-14T12:13:10;23.33;;;7.20;;
37595;SDS011;23442;48.182;11.552;2022-08-14T12:15:40;24.08;;;7.82;;
37595;SDS011;23442;48.182;11.552;2022-08-14T12:18:07;31.05;;;8.35;;
37595;SDS011;23442;48.182;11.552;2022-08-14T12:20:34;20.17;;;7.10;;
37595;SDS011;23442;48.182;11.552;2022-08-14T12:23:19;25.52;;;7.57;;
37595;SDS011;23442;48.182;11.552;2022-08-14T12:25:47;25.30;;;8.10;;
37595;SDS011;23442;48.182;11.552;2022-08-14T12:28:14;19.83;;;6.70;;
37595;SDS011;23442;48.182;11.552;2022-08-14T12:30:44;18.10;;;6.22;;
37595;SDS011;23442;48.182;11.552;2022-08-14T12:33:23;19.60;;;6.70;;
37595;SDS011;23442;48.182;11.552;2022-08-14T12:35:53;38.00;;;10.32;;
37595;SDS011;23442;48.182;11.552;2022-08-14T12:38:39;24.67;;;7.50;;
37595;SDS011;23442;48.182;11.552;2022-08-14T12:41:11;26.70;;;7.97;;
37595;SDS011;23442;48.182;11.552;2022-08-14T12:43:46;20.55;;;6.95;;
37595;SDS011;23442;48.182;11.552;2022-08-14T12:48:52;22.45;;;7.40;;
37595;SDS011;23442;48.182;11.552;2022-08-14T12:51:20;20.85;;;6.78;;
37595;SDS011;23442;48.182;11.552;2022-08-14T12:53:50;19.58;;;6.82;;
37595;SDS011;23442;48.182;11.552;2022-08-14T12:56:17;18.02;;;7.03;;
37595;SDS011;23442;48.182;11.552;2022-08-14T12:58:48;16.33;;;6.28;;
37595;SDS011;23442;48.182;11.552;2022-08-14T13:01:17;26.33;;;7.88;;
37595;SDS011;23442;48.182;11.552;2022-08-14T13:03:47;24.23;;;7.53;;
37595;SDS011;23442;48.182;11.552;2022-08-14T13:06:14;16.35;;;6.03;;
37595;SDS011;23442;48.182;11.552;2022-08-14T13:08:40;19.48;;;7.05;;
37595;SDS011;23442;48.182;11.552;2022-08-14T13:11:10;18.63;;;6.57;;
37595;SDS011;23442;48.182;11.552;2022-08-14T13:13:40;17.60;;;6.63;;
37595;SDS011;23442;48.182;11.552;2022-08-14T13:16:08;15.95;;;6.03;;
37595;SDS011;23442;48.182;11.552;2022-08-14T13:18:37;17.00;;;6.15;;
37595;SDS011;23442;48.182;11.552;2022-08-14T13:21:08;16.27;;;6.75;;
37595;SDS011;23442;48.182;11.552;2022-08-14T13:23:36;19.77;;;6.60;;
37595;SDS011;23442;48.182;11.552;2022-08-14T13:26:09;16.52;;;6.28;;
37595;SDS011;23442;48.182;11.552;2022-08-14T13:28:39;18.48;;;6.53;;
37595;SDS011;23442;48.182;11.552;2022-08-14T13:31:08;14.57;;;5.57;;
37595;SDS011;23442;48.182;11.552;2022-08-14T13:33:38;17.25;;;6.07;;
37595;SDS011;23442;48.182;11.552;2022-08-14T13:36:04;21.25;;;6.53;;
37595;SDS011;23442;48.182;11.552;2022-08-14T13:38:31;19.10;;;6.18;;
37595;SDS011;23442;48.182;11.552;2022-08-14T13:40:57;27.55;;;7.35;;
37595;SDS011;23442;48.182;11.552;2022-08-14T13:43:24;20.30;;;6.80;;
37595;SDS011;23442;48.182;11.552;2022-08-14T13:45:50;29.40;;;8.70;;
37595;SDS011;23442;48.182;11.552;2022-08-14T13:48:20;11.32;;;5.32;;
37595;SDS011;23442;48.182;11.552;2022-08-14T13:50:47;24.50;;;6.90;;
37595;SDS011;23442;48.182;11.552;2022-08-14T13:53:19;34.25;;;8.68;;
37595;SDS011;23442;48.182;11.552;2022-08-14T13:55:47;22.30;;;7.38;;
37595;SDS011;23442;48.182;11.552;2022-08-14T13:58:18;18.23;;;6.47;;
37595;SDS011;23442;48.182;11.552;2022-08-14T14:00:48;19.98;;;6.10;;
37595;SDS011;23442;48.182;11.552;2022-08-14T14:03:17;26.38;;;7.70;;
37595;SDS011;23442;48.182;11.552;2022-08-14T14:05:44;24.58;;;7.35;;
37595;SDS011;23442;48.182;11.552;2022-08-14T14:08:15;23.35;;;7.30;;
37595;SDS011;23442;48.182;11.552;2022-08-14T14:10:41;25.60;;;7.70;;
37595;SDS011;23442;48.182;11.552;2022-08-14T14:13:08;13.25;;;5.78;;
37595;SDS011;23442;48.182;11.552;2022-08-14T14:15:34;33.72;;;8.75;;
37595;SDS011;23442;48.182;11.552;2022-08-14T14:18:01;26.42;;;7.60;;
37595;SDS011;23442;48.182;11.552;2022-08-14T14:20:28;31.17;;;7.88;;
37595;SDS011;23442;48.182;11.552;2022-08-14T14:22:54;27.00;;;7.93;;
37595;SDS011;23442;48.182;11.552;2022-08-14T14:25:20;31.33;;;8.38;;
37595;SDS011;23442;48.182;11.552;2022-08-14T14:27:47;17.80;;;6.35;;
37595;SDS011;23442;48.182;11.552;2022-08-14T14:30:14;31.52;;;8.52;;
37595;SDS011;23442;48.182;11.552;2022-08-14T14:32:42;19.02;;;6.45;;
37595;SDS011;23442;48.182;11.552;2022-08-14T14:35:14;33.95;;;8.60;;
37595;SDS011;23442;48.182;11.552;2022-08-14T14:37:43;22.42;;;7.32;;
37595;SDS011;23442;48.182;11.552;2022-08-14T14:40:11;36.53;;;8.60;;
37595;SDS011;23442;48.182;11.552;2022-08-14T14:42:44;25.15;;;7.22;;
37595;SDS011;23442;48.182;11.552;2022-08-14T14:45:16;23.35;;;6.72;;
37595;SDS011;23442;48.182;11.552;2022-08-14T14:47:44;26.85;;;7.00;;
37595;SDS011;23442;48.182;11.552;2022-08-14T14:50:12;41.60;;;9.00;;
37595;SDS011;23442;48.182;11.552;2022-08-14T14:52:39;20.90;;;6.25;;
37595;SDS011;23442;48.182;11.552;2022-08-14T14:55:06;20.20;;;6.85;;
37595;SDS011;23442;48.182;11.552;2022-08-14T14:57:36;25.35;;;7.13;;
37595;SDS011;23442;48.182;11.552;2022-08-14T15:00:07;25.00;;;7.20;;
37595;SDS011;23442;48.182;11.552;2022-08-14T15:02:37;24.70;;;6.95;;